ENTC Informações do Aeroporto

Informações da Pista
Pista 18 Comprimento 7848 ft Largura 148 ft
Elevação 13 ft Limite 1286 ft Heading 193
Pista 36 Comprimento 7848 ft Largura 148 ft
Elevação 25 ft Limite ft Heading 13
Frequências do Aeroporto
Tipo APP Nome APP Frequência 123.75 MHZ
Tipo ATIS Nome ATIS Frequência 126.125 MHZ
Tipo TWR Nome TWR Frequência 118.3 MHZ
Navaids do Aeroporto
Tipo NDB Nome Kobbe Frequência 283 KHZ
Tipo NDB Nome Kvalsund Frequência 362 KHZ
Tipo NDB Nome Lanes Frequência 268 KHZ
Tipo VOR-DME Nome Tromso Frequência 113800 KHZ
Informações meteorológicas do aeroporto e NOTAM
ADDS - METARS form results

(2326 UTC 03 July 2022)
Data provider http://aviationweather.gov/metar/data/
 
METAR text: ENTC 032320Z 06006KT CAVOK 13/09 Q1011 RMK WIND 2600FT 17009KT
Conditions at: ENTC (TROMSO/LANGNES , NO) observed 2320 UTC 03 July 2022
Temperature: 13.0°C (55°F)
Dewpoint: 9.0°C (48°F) [RH = 77%]
Pressure (altimeter): 29.85 inches Hg (1011.0 mb)
Winds: from the ENE (60 degrees) at 7 MPH (6 knots; 3.1 m/s)
Visibility: 6 or more miles (10+ km)
Ceiling: ceiling and visibility are OK
Clouds: unknown
Weather: no significant weather observed at this time

METAR text: ENTC 032250Z 05005KT CAVOK 13/09 Q1011 RMK WIND 2600FT 18011KT
Conditions at: ENTC (TROMSO/LANGNES , NO) observed 2250 UTC 03 July 2022
Temperature: 13.0°C (55°F)
Dewpoint: 9.0°C (48°F) [RH = 77%]
Pressure (altimeter): 29.85 inches Hg (1011.0 mb)
Winds: from the NE (50 degrees) at 6 MPH (5 knots; 2.6 m/s)
Visibility: 6 or more miles (10+ km)
Ceiling: ceiling and visibility are OK
Clouds: unknown
Weather: no significant weather observed at this time

Forecast for: ENTC (TROMSO/LANGNES , NO)
Text: TAF ENTC 0318/0418 03008KT 9999 FEW035
Forecast period: 1800 UTC 03 July 2022 to 1800 UTC 04 July 2022
Forecast type: FROM: standard forecast or significant change
Winds: from the NNE (30 degrees) at 9 MPH (8 knots; 4.1 m/s)
Visibility: 6 or more miles (10+ km)
Ceiling: at least 12,000 feet AGL
Clouds: few clouds at 3500 feet AGL
Weather: no significant weather forecast for this period
Text: TEMPO 0413/0418 SHRA FEW040CB
Forecast period: 1300 to 1800 UTC 04 July 2022
Forecast type: TEMPORARY: The following changes expected for less than half the time period
Visibility: missing
Ceiling: at least 12,000 feet AGL
Clouds: few clouds at 4000 feet AGL
Weather: SHRA  (rain showers)